Silver Lake, Massachusetts
Current Conditions -  °F | °C
As of 2:52 PM on Thursday 18 Dec 2014 (Local Time) from KPYM Reporting Station
Scattered Clouds Scattered Clouds  
Wind Chill: 38°   Ceiling: Unl
Heat Index: 43°   Visibility: 10mi
Dew Point: 29°   Wind: 9mph
Humidity: 58%   Direction: 270°W
Pressure: 29.78"   Gusts: NA
Location:  41.9862°N, 70.748°W
Report Text: KPYM 181952Z AUTO 27008KT 10SM SCT035 06/M02 A2978 RMK AO2 SLP085 T00611017
Loading
Personal Weather Stations






























Interactive Weather Map New forecast layout! Learn more

10-Day Weather Forecast

Advertisements
Track Severe Weather on mobile